Hauptseite
METAR-TAF:

METAR-TAF

Flughäfen :

Preston, England

Breite: 53-44-42N, Länge: 2-53-02W, Höhe: 17 m

Beobachtung

Neuester Wetterbericht von vor 10 Stunden und 2 Minuten, um 17:50 UTC
Wind 10 kt aus West
Temperatur 11°C
Luftfeuchtigkeit 76%
Luftdruck 1037 hPa
Sichtweite 10 km oder mehr
Leicht bewölkt in der Höhe von 2400 ft
Aufgelockert bewölkt in der Höhe von 3500 ft

METAR: EGNO 221750Z 28010KT 9999 FEW024 SCT035 11/07 Q1037

Zeit: 04:52 (03:52 UTC)

Prognose

Neuester Wetterbericht von vor 14 Stunden und 3 Minuten, um 13:49 UTC
Gültige Prognose vom 22 um 15 UTC bis 22 um 18 UTC
Wind 12 kt aus West
Sichtweite 10 km oder mehr
Leicht bewölkt in der Höhe von 2500 ft
Wahrscheinlichkeit 30% :
Zeitweise
vom 22 um 15 UTC bis 22 um 18 UTC
Wind 15 kt aus West/Nordwest, Böen bis zu 25 kt

TAF: EGNO 221349Z 2215/2218 28012KT 9999 FEW025 PROB30 TEMPO 2215/2218 29015G25KT

Wetterbeobachtungen und Prognosen von mehr als 4000 Flughäfen (METAR und TAF Bericht).

Die verfügbaren Stationen werden durch gelbe und rote Markierungen auf der Karte dargestellt.

Führen Sie die Maus auf sie, um den Namen der Station zu sehen.

Darauf klicken, um die Beobachtung von Wetterbeobachtungen und Prognosen zu sehen.

Um die Karte zu ändern : klicken Sie auf den grünen Tasten mit einem schwarzen Kreuz Zum Vergrößern, auf den grünen Button mit einem Gedankenstrich zu verkleinern, oder auf die grünen Pfeile für benachbarte Karten.


METAR-TAF: